Rickmers New Orleans — V7FF2 — position and weather

sailwx.info

Track history (hours):
 
Tides and Currents Weather Stations Pressure Air Temp Water Temp Dewpoint Dewpoint Depression Visibility Wind Speed Wind Dir Waves Ship Positions

Rickmers New Orleans

Last reported at 2016-May-03 09:27 UTC. Time now 2016-May-06 11:12 UTC.
Position N 33°59' E 134°55'.

Length 192.9 m; beam 27.8 m; draft 11.2 m.

Type: Ship. MMSI: 538001922.

Date/timePositionNaut miles runAvg speedWind from/ knotsBaromVisibWave heightAir tempDewpointWater temp
2016-May-03 09:27N 33°59' E 134°55'1213.8
2016-May-03 08:33N 34°11' E 134°57'1110.9
2016-May-03 07:32N 34°22' E 135°00'1515.1
2016-May-03 06:33N 34°33' E 135°13'7 7.1
2016-May-03 05:30N 34°40' E 135°13'0 0.0
2016-May-03 04:30N 34°40' E 135°13'1 0.6
2016-May-03 03:30N 34°40' E 135°14'0 0.0
2016-May-03 02:18N 34°40' E 135°14'0 0.0
2016-May-03 01:30N 34°40' E 135°14'0 0.0
2016-May-03 00:30N 34°40' E 135°14'0 0.0
2016-May-02 23:30N 34°40' E 135°14'0 0.0
2016-May-02 22:30N 34°40' E 135°14'1 0.6
2016-May-02 21:30N 34°40' E 135°13'1 0.6
2016-May-02 20:30N 34°40' E 135°14'0 0.0
2016-May-02 19:30N 34°40' E 135°14'0 0.0
2016-May-02 18:30N 34°40' E 135°14'0 0.0
2016-May-02 17:30N 34°40' E 135°14'0 0.0
2016-May-02 16:30N 34°40' E 135°14'0 0.0
2016-May-02 15:30N 34°40' E 135°14'0 0.0
2016-May-02 14:30N 34°40' E 135°14'0 0.0
2016-May-02 13:30N 34°40' E 135°14'0 0.0
2016-May-02 12:30N 34°40' E 135°14'0 0.0
2016-May-02 11:30N 34°40' E 135°14'0 0.0
2016-May-02 10:24N 34°40' E 135°14'0 0.0
2016-May-02 09:30N 34°40' E 135°14'0 0.0
2016-May-02 08:30N 34°40' E 135°14'0 0.0
2016-May-02 07:24N 34°40' E 135°14'0 0.0
2016-May-02 06:30N 34°40' E 135°14'0 0.0
2016-May-02 05:30N 34°40' E 135°14'0 0.0
2016-May-02 04:30N 34°40' E 135°14'1 0.6
2016-May-02 03:30N 34°40' E 135°13'1 0.6
2016-May-02 02:30N 34°40' E 135°14'0 0.0
2016-May-02 01:30N 34°40' E 135°14'0 0.0
2016-May-02 00:30N 34°40' E 135°14'1 0.6
2016-May-01 23:30N 34°40' E 135°13'1 0.6
2016-May-01 22:30N 34°40' E 135°14'0 0.0
2016-May-01 21:18N 34°40' E 135°14'0 0.0
2016-May-01 20:30N 34°40' E 135°14'0 0.0
2016-May-01 19:30N 34°40' E 135°14'0 0.0
2016-May-01 18:30N 34°40' E 135°14'0 0.0
2016-May-01 17:24N 34°40' E 135°14'0 0.0
2016-May-01 16:30N 34°40' E 135°14'0 0.0
2016-May-01 15:30N 34°40' E 135°14'0 0.0
2016-May-01 14:24N 34°40' E 135°14'0 0.0
2016-May-01 13:30N 34°40' E 135°14'1 0.6
2016-May-01 12:24N 34°40' E 135°13'1 0.7
2016-May-01 11:30N 34°40' E 135°14'0 0.0
2016-May-01 10:30N 34°40' E 135°14'0 0.0
2016-May-01 09:24N 34°40' E 135°14'0 0.0
2016-May-01 08:30N 34°40' E 135°14'0 0.0
2016-May-01 07:30N 34°40' E 135°14'0 0.0
2016-May-01 06:30N 34°40' E 135°14'0 0.0
2016-May-01 05:30N 34°40' E 135°14'0 0.0
2016-May-01 04:30N 34°40' E 135°14'0 0.0
2016-May-01 03:30N 34°40' E 135°14'0 0.2
2016-May-01 02:33N 34°40' E 135°14'7 6.6
2016-May-01 01:33N 34°34' E 135°15'1817.7
2016-May-01 00:33N 34°20' E 135°02'1414.2
2016-Apr-30 23:33N 34°06' E 135°00'  
2016-Apr-27 00:21N 34°04' E 130°43'43313.6
2016-Apr-25 16:32N 37°45' E 123°03'13817.0
2016-Apr-25 08:25N 38°36' E 120°20'12315.5
2016-Apr-25 00:31N 38°59' E 117°46'1 0.1
2016-Apr-24 14:24N 38°59' E 117°45'0 0.0
2016-Apr-24 13:18N 38°59' E 117°45'1 0.3
2016-Apr-24 11:18N 38°59' E 117°44'1 0.2
2016-Apr-24 08:30N 38°59' E 117°45'1 0.5
2016-Apr-24 07:12N 38°59' E 117°44'1 0.1
2016-Apr-24 02:18N 38°59' E 117°45'1 0.8
2016-Apr-24 01:30N 38°59' E 117°44'1 0.5
2016-Apr-24 00:06N 38°59' E 117°45'0 0.0
2016-Apr-23 23:30N 38°59' E 117°45'0 0.0
2016-Apr-23 22:30N 38°59' E 117°45'1 0.7
2016-Apr-23 21:30N 38°59' E 117°44'1 0.7
2016-Apr-23 20:30N 38°59' E 117°45'0 0.0
2016-Apr-23 19:30N 38°59' E 117°45'0 0.0
2016-Apr-23 18:24N 38°59' E 117°45'0 0.0
2016-Apr-23 17:30N 38°59' E 117°45'1 0.7
2016-Apr-23 16:30N 38°59' E 117°44'1 0.7
2016-Apr-23 15:30N 38°59' E 117°45'0 0.0
2016-Apr-23 14:30N 38°59' E 117°45'0 0.0
2016-Apr-23 13:24N 38°59' E 117°45'0 0.0
2016-Apr-23 12:30N 38°59' E 117°45'1 0.7
2016-Apr-23 11:34N 38°59' E 117°44'1110.1
2016-Apr-23 10:26N 38°57' E 117°58'  
Track history (hours):
 
Tides and Currents Weather Stations Pressure Air Temp Water Temp Dewpoint Dewpoint Depression Visibility Wind Speed Wind Dir Waves Ship Positions

Rickmers New Orleans

Last reported at 2016-May-03 09:27 UTC. Time now 2016-May-06 11:12 UTC.
Position N 33°59' E 134°55'.

Length 192.9 m; beam 27.8 m; draft 11.2 m.

Type: Ship. MMSI: 538001922.

Date/timePositionNaut miles runAvg speedWind from/ knotsBaromVisibWave heightAir tempDewpointWater temp
2016-May-03 09:27N 33°59' E 134°55'1213.8
2016-May-03 08:33N 34°11' E 134°57'1110.9
2016-May-03 07:32N 34°22' E 135°00'1515.1
2016-May-03 06:33N 34°33' E 135°13'7 7.1
2016-May-03 05:30N 34°40' E 135°13'0 0.0
2016-May-03 04:30N 34°40' E 135°13'1 0.6
2016-May-03 03:30N 34°40' E 135°14'0 0.0
2016-May-03 02:18N 34°40' E 135°14'0 0.0
2016-May-03 01:30N 34°40' E 135°14'0 0.0
2016-May-03 00:30N 34°40' E 135°14'0 0.0
2016-May-02 23:30N 34°40' E 135°14'0 0.0
2016-May-02 22:30N 34°40' E 135°14'1 0.6
2016-May-02 21:30N 34°40' E 135°13'1 0.6
2016-May-02 20:30N 34°40' E 135°14'0 0.0
2016-May-02 19:30N 34°40' E 135°14'0 0.0
2016-May-02 18:30N 34°40' E 135°14'0 0.0
2016-May-02 17:30N 34°40' E 135°14'0 0.0
2016-May-02 16:30N 34°40' E 135°14'0 0.0
2016-May-02 15:30N 34°40' E 135°14'0 0.0
2016-May-02 14:30N 34°40' E 135°14'0 0.0
2016-May-02 13:30N 34°40' E 135°14'0 0.0
2016-May-02 12:30N 34°40' E 135°14'0 0.0
2016-May-02 11:30N 34°40' E 135°14'0 0.0
2016-May-02 10:24N 34°40' E 135°14'0 0.0
2016-May-02 09:30N 34°40' E 135°14'0 0.0
2016-May-02 08:30N 34°40' E 135°14'0 0.0
2016-May-02 07:24N 34°40' E 135°14'0 0.0
2016-May-02 06:30N 34°40' E 135°14'0 0.0
2016-May-02 05:30N 34°40' E 135°14'0 0.0
2016-May-02 04:30N 34°40' E 135°14'1 0.6
2016-May-02 03:30N 34°40' E 135°13'1 0.6
2016-May-02 02:30N 34°40' E 135°14'0 0.0
2016-May-02 01:30N 34°40' E 135°14'0 0.0
2016-May-02 00:30N 34°40' E 135°14'1 0.6
2016-May-01 23:30N 34°40' E 135°13'1 0.6
2016-May-01 22:30N 34°40' E 135°14'0 0.0
2016-May-01 21:18N 34°40' E 135°14'0 0.0
2016-May-01 20:30N 34°40' E 135°14'0 0.0
2016-May-01 19:30N 34°40' E 135°14'0 0.0
2016-May-01 18:30N 34°40' E 135°14'0 0.0
2016-May-01 17:24N 34°40' E 135°14'0 0.0
2016-May-01 16:30N 34°40' E 135°14'0 0.0
2016-May-01 15:30N 34°40' E 135°14'0 0.0
2016-May-01 14:24N 34°40' E 135°14'0 0.0
2016-May-01 13:30N 34°40' E 135°14'1 0.6
2016-May-01 12:24N 34°40' E 135°13'1 0.7
2016-May-01 11:30N 34°40' E 135°14'0 0.0
2016-May-01 10:30N 34°40' E 135°14'0 0.0
2016-May-01 09:24N 34°40' E 135°14'0 0.0
2016-May-01 08:30N 34°40' E 135°14'0 0.0
2016-May-01 07:30N 34°40' E 135°14'0 0.0
2016-May-01 06:30N 34°40' E 135°14'0 0.0
2016-May-01 05:30N 34°40' E 135°14'0 0.0
2016-May-01 04:30N 34°40' E 135°14'0 0.0
2016-May-01 03:30N 34°40' E 135°14'0 0.2
2016-May-01 02:33N 34°40' E 135°14'7 6.6
2016-May-01 01:33N 34°34' E 135°15'1817.7
2016-May-01 00:33N 34°20' E 135°02'1414.2
2016-Apr-30 23:33N 34°06' E 135°00'  
2016-Apr-27 00:21N 34°04' E 130°43'43313.6
2016-Apr-25 16:32N 37°45' E 123°03'13817.0
2016-Apr-25 08:25N 38°36' E 120°20'12315.5
2016-Apr-25 00:31N 38°59' E 117°46'1 0.1
2016-Apr-24 14:24N 38°59' E 117°45'0 0.0
2016-Apr-24 13:18N 38°59' E 117°45'1 0.3
2016-Apr-24 11:18N 38°59' E 117°44'1 0.2
2016-Apr-24 08:30N 38°59' E 117°45'1 0.5
2016-Apr-24 07:12N 38°59' E 117°44'1 0.1
2016-Apr-24 02:18N 38°59' E 117°45'1 0.8
2016-Apr-24 01:30N 38°59' E 117°44'1 0.5
2016-Apr-24 00:06N 38°59' E 117°45'0 0.0
2016-Apr-23 23:30N 38°59' E 117°45'0 0.0
2016-Apr-23 22:30N 38°59' E 117°45'1 0.7
2016-Apr-23 21:30N 38°59' E 117°44'1 0.7
2016-Apr-23 20:30N 38°59' E 117°45'0 0.0
2016-Apr-23 19:30N 38°59' E 117°45'0 0.0
2016-Apr-23 18:24N 38°59' E 117°45'0 0.0
2016-Apr-23 17:30N 38°59' E 117°45'1 0.7
2016-Apr-23 16:30N 38°59' E 117°44'1 0.7
2016-Apr-23 15:30N 38°59' E 117°45'0 0.0
2016-Apr-23 14:30N 38°59' E 117°45'0 0.0
2016-Apr-23 13:24N 38°59' E 117°45'0 0.0
2016-Apr-23 12:30N 38°59' E 117°45'1 0.7
2016-Apr-23 11:34N 38°59' E 117°44'1110.1
2016-Apr-23 10:26N 38°57' E 117°58'  

Dump ship's entire track history